sensor_id;sensor_type;location;lat;lon;timestamp;temperature;humidity
18103;DHT22;9178;51.120;6.192;2023-06-14T00:01:31;17.80;73.00
18103;DHT22;9178;51.120;6.192;2023-06-14T00:04:01;17.70;72.80
18103;DHT22;9178;51.120;6.192;2023-06-14T00:06:30;17.70;73.30
18103;DHT22;9178;51.120;6.192;2023-06-14T00:08:59;17.60;73.90
18103;DHT22;9178;51.120;6.192;2023-06-14T00:11:30;17.50;75.40
18103;DHT22;9178;51.120;6.192;2023-06-14T00:14:00;17.50;77.40
18103;DHT22;9178;51.120;6.192;2023-06-14T00:16:28;17.40;78.00
18103;DHT22;9178;51.120;6.192;2023-06-14T00:18:55;17.40;78.90
18103;DHT22;9178;51.120;6.192;2023-06-14T00:21:24;17.30;77.70
18103;DHT22;9178;51.120;6.192;2023-06-14T00:23:54;17.30;77.40
18103;DHT22;9178;51.120;6.192;2023-06-14T00:26:21;17.20;78.00
18103;DHT22;9178;51.120;6.192;2023-06-14T00:28:49;17.20;78.10
18103;DHT22;9178;51.120;6.192;2023-06-14T00:31:16;17.20;77.90
18103;DHT22;9178;51.120;6.192;2023-06-14T00:33:44;17.20;77.80
18103;DHT22;9178;51.120;6.192;2023-06-14T00:36:11;17.20;80.10
18103;DHT22;9178;51.120;6.192;2023-06-14T00:38:40;17.10;78.20
18103;DHT22;9178;51.120;6.192;2023-06-14T00:41:08;17.10;78.20
18103;DHT22;9178;51.120;6.192;2023-06-14T00:43:35;17.10;77.50
18103;DHT22;9178;51.120;6.192;2023-06-14T00:46:02;17.10;77.10
18103;DHT22;9178;51.120;6.192;2023-06-14T00:48:30;17.10;77.80
18103;DHT22;9178;51.120;6.192;2023-06-14T00:51:07;17.10;77.70
18103;DHT22;9178;51.120;6.192;2023-06-14T00:53:37;17.00;77.90
18103;DHT22;9178;51.120;6.192;2023-06-14T00:56:08;17.00;79.60
18103;DHT22;9178;51.120;6.192;2023-06-14T00:58:35;17.00;78.60
18103;DHT22;9178;51.120;6.192;2023-06-14T01:01:02;17.00;79.00
18103;DHT22;9178;51.120;6.192;2023-06-14T01:03:29;16.90;79.30
18103;DHT22;9178;51.120;6.192;2023-06-14T01:06:03;16.90;79.70
18103;DHT22;9178;51.120;6.192;2023-06-14T01:08:43;16.90;80.10
18103;DHT22;9178;51.120;6.192;2023-06-14T01:11:18;16.80;80.10
18103;DHT22;9178;51.120;6.192;2023-06-14T01:13:50;16.80;80.20
18103;DHT22;9178;51.120;6.192;2023-06-14T01:16:21;16.80;80.20
18103;DHT22;9178;51.120;6.192;2023-06-14T01:18:49;16.80;80.30
18103;DHT22;9178;51.120;6.192;2023-06-14T01:21:24;16.70;80.30
18103;DHT22;9178;51.120;6.192;2023-06-14T01:23:55;16.70;80.60
18103;DHT22;9178;51.120;6.192;2023-06-14T01:26:25;16.80;80.50
18103;DHT22;9178;51.120;6.192;2023-06-14T01:28:55;16.70;80.90
18103;DHT22;9178;51.120;6.192;2023-06-14T01:31:25;16.70;81.30
18103;DHT22;9178;51.120;6.192;2023-06-14T01:33:53;16.70;81.80
18103;DHT22;9178;51.120;6.192;2023-06-14T01:36:21;16.70;82.60
18103;DHT22;9178;51.120;6.192;2023-06-14T01:38:50;16.60;82.90
18103;DHT22;9178;51.120;6.192;2023-06-14T01:41:26;16.60;83.70
18103;DHT22;9178;51.120;6.192;2023-06-14T01:43:55;16.50;83.10
18103;DHT22;9178;51.120;6.192;2023-06-14T01:46:25;16.50;83.10
18103;DHT22;9178;51.120;6.192;2023-06-14T01:48:53;16.50;84.00
18103;DHT22;9178;51.120;6.192;2023-06-14T01:51:20;16.40;84.80
18103;DHT22;9178;51.120;6.192;2023-06-14T01:53:55;16.40;86.80
18103;DHT22;9178;51.120;6.192;2023-06-14T01:56:29;16.30;86.90
18103;DHT22;9178;51.120;6.192;2023-06-14T01:58:57;16.30;88.30
18103;DHT22;9178;51.120;6.192;2023-06-14T02:01:24;16.20;89.00
18103;DHT22;9178;51.120;6.192;2023-06-14T02:03:52;16.20;91.00
18103;DHT22;9178;51.120;6.192;2023-06-14T02:06:22;16.20;92.40
18103;DHT22;9178;51.120;6.192;2023-06-14T02:08:51;16.10;93.00
18103;DHT22;9178;51.120;6.192;2023-06-14T02:11:18;16.10;93.60
18103;DHT22;9178;51.120;6.192;2023-06-14T02:13:48;16.00;93.20
18103;DHT22;9178;51.120;6.192;2023-06-14T02:16:16;16.00;93.10
18103;DHT22;9178;51.120;6.192;2023-06-14T02:18:43;16.00;93.90
18103;DHT22;9178;51.120;6.192;2023-06-14T02:21:11;16.00;94.40
18103;DHT22;9178;51.120;6.192;2023-06-14T02:23:38;15.90;95.70
18103;DHT22;9178;51.120;6.192;2023-06-14T02:26:05;15.90;96.00
18103;DHT22;9178;51.120;6.192;2023-06-14T02:28:33;15.90;96.20
18103;DHT22;9178;51.120;6.192;2023-06-14T02:31:05;15.90;97.00
18103;DHT22;9178;51.120;6.192;2023-06-14T02:33:32;15.80;97.30
18103;DHT22;9178;51.120;6.192;2023-06-14T02:36:00;15.90;97.40
18103;DHT22;9178;51.120;6.192;2023-06-14T02:38:28;15.80;98.20
18103;DHT22;9178;51.120;6.192;2023-06-14T02:40:55;15.80;98.70
18103;DHT22;9178;51.120;6.192;2023-06-14T02:43:24;15.80;99.30
18103;DHT22;9178;51.120;6.192;2023-06-14T02:45:51;15.70;99.80
18103;DHT22;9178;51.120;6.192;2023-06-14T02:48:19;15.70;99.90
18103;DHT22;9178;51.120;6.192;2023-06-14T02:50:47;15.70;99.90
18103;DHT22;9178;51.120;6.192;2023-06-14T02:53:20;15.60;99.90
18103;DHT22;9178;51.120;6.192;2023-06-14T02:55:47;15.60;99.90
18103;DHT22;9178;51.120;6.192;2023-06-14T02:58:17;15.60;99.90
18103;DHT22;9178;51.120;6.192;2023-06-14T03:00:51;15.60;99.90
18103;DHT22;9178;51.120;6.192;2023-06-14T03:03:20;15.60;99.90
18103;DHT22;9178;51.120;6.192;2023-06-14T03:05:50;15.50;99.90
18103;DHT22;9178;51.120;6.192;2023-06-14T03:08:20;15.50;99.90
18103;DHT22;9178;51.120;6.192;2023-06-14T03:10:53;15.40;99.90
18103;DHT22;9178;51.120;6.192;2023-06-14T03:13:21;15.40;99.90
18103;DHT22;9178;51.120;6.192;2023-06-14T03:15:49;15.40;99.90
18103;DHT22;9178;51.120;6.192;2023-06-14T03:18:17;15.30;99.90
18103;DHT22;9178;51.120;6.192;2023-06-14T03:20:49;15.30;99.90
18103;DHT22;9178;51.120;6.192;2023-06-14T03:23:17;15.30;99.90
18103;DHT22;9178;51.120;6.192;2023-06-14T03:25:47;15.20;99.90
18103;DHT22;9178;51.120;6.192;2023-06-14T03:28:16;15.20;99.90
18103;DHT22;9178;51.120;6.192;2023-06-14T03:30:47;15.10;99.90
18103;DHT22;9178;51.120;6.192;2023-06-14T03:33:14;15.00;99.90
18103;DHT22;9178;51.120;6.192;2023-06-14T03:35:43;15.00;99.90
18103;DHT22;9178;51.120;6.192;2023-06-14T03:38:11;14.90;99.90
18103;DHT22;9178;51.120;6.192;2023-06-14T03:40:39;14.90;99.90
18103;DHT22;9178;51.120;6.192;2023-06-14T03:43:06;14.80;99.90
18103;DHT22;9178;51.120;6.192;2023-06-14T03:45:34;14.90;99.90
18103;DHT22;9178;51.120;6.192;2023-06-14T03:48:01;14.90;99.90
18103;DHT22;9178;51.120;6.192;2023-06-14T03:50:28;14.80;99.90
18103;DHT22;9178;51.120;6.192;2023-06-14T03:52:58;14.80;99.90
18103;DHT22;9178;51.120;6.192;2023-06-14T03:55:30;14.80;99.90
18103;DHT22;9178;51.120;6.192;2023-06-14T03:57:59;14.80;99.90
18103;DHT22;9178;51.120;6.192;2023-06-14T04:00:28;14.80;99.90
18103;DHT22;9178;51.120;6.192;2023-06-14T04:03:00;14.80;99.90
18103;DHT22;9178;51.120;6.192;2023-06-14T04:05:29;14.80;99.90
18103;DHT22;9178;51.120;6.192;2023-06-14T04:07:56;14.80;99.90
18103;DHT22;9178;51.120;6.192;2023-06-14T04:10:29;14.80;99.90
18103;DHT22;9178;51.120;6.192;2023-06-14T04:12:56;14.80;99.90
18103;DHT22;9178;51.120;6.192;2023-06-14T04:15:25;14.80;99.90
18103;DHT22;9178;51.120;6.192;2023-06-14T04:17:55;14.80;99.90
18103;DHT22;9178;51.120;6.192;2023-06-14T04:20:25;14.80;99.90
18103;DHT22;9178;51.120;6.192;2023-06-14T04:23:10;14.80;99.90
18103;DHT22;9178;51.120;6.192;2023-06-14T04:25:41;14.80;99.90
18103;DHT22;9178;51.120;6.192;2023-06-14T04:28:22;14.90;99.90
18103;DHT22;9178;51.120;6.192;2023-06-14T04:30:52;14.90;99.90
18103;DHT22;9178;51.120;6.192;2023-06-14T04:33:19;15.00;99.90
18103;DHT22;9178;51.120;6.192;2023-06-14T04:35:48;15.00;99.90
18103;DHT22;9178;51.120;6.192;2023-06-14T04:38:19;15.00;99.90
18103;DHT22;9178;51.120;6.192;2023-06-14T04:40:55;15.10;99.90
18103;DHT22;9178;51.120;6.192;2023-06-14T04:43:23;15.10;99.90
18103;DHT22;9178;51.120;6.192;2023-06-14T04:45:52;15.20;99.90
18103;DHT22;9178;51.120;6.192;2023-06-14T04:48:20;15.20;99.90
18103;DHT22;9178;51.120;6.192;2023-06-14T04:50:49;15.30;99.90
18103;DHT22;9178;51.120;6.192;2023-06-14T04:53:19;15.30;99.90
18103;DHT22;9178;51.120;6.192;2023-06-14T04:55:56;15.40;99.90
18103;DHT22;9178;51.120;6.192;2023-06-14T04:58:26;15.50;99.90
18103;DHT22;9178;51.120;6.192;2023-06-14T05:00:54;15.50;99.90
18103;DHT22;9178;51.120;6.192;2023-06-14T05:03:25;15.60;99.90
18103;DHT22;9178;51.120;6.192;2023-06-14T05:05:53;15.70;99.90
18103;DHT22;9178;51.120;6.192;2023-06-14T05:08:20;15.80;99.90
18103;DHT22;9178;51.120;6.192;2023-06-14T05:10:50;15.90;99.90
18103;DHT22;9178;51.120;6.192;2023-06-14T05:13:19;15.90;99.90
18103;DHT22;9178;51.120;6.192;2023-06-14T05:15:49;16.00;99.90
18103;DHT22;9178;51.120;6.192;2023-06-14T05:18:16;16.10;99.90
18103;DHT22;9178;51.120;6.192;2023-06-14T05:20:43;16.20;99.90
18103;DHT22;9178;51.120;6.192;2023-06-14T05:23:11;16.30;99.90
18103;DHT22;9178;51.120;6.192;2023-06-14T05:25:42;16.40;99.90
18103;DHT22;9178;51.120;6.192;2023-06-14T05:28:12;16.40;99.90
18103;DHT22;9178;51.120;6.192;2023-06-14T05:30:41;16.50;99.90
18103;DHT22;9178;51.120;6.192;2023-06-14T05:33:08;16.60;99.90
18103;DHT22;9178;51.120;6.192;2023-06-14T05:35:35;16.70;99.90
18103;DHT22;9178;51.120;6.192;2023-06-14T05:38:04;16.70;99.90
18103;DHT22;9178;51.120;6.192;2023-06-14T05:40:34;16.80;99.90
18103;DHT22;9178;51.120;6.192;2023-06-14T05:43:02;16.90;99.90
18103;DHT22;9178;51.120;6.192;2023-06-14T05:45:29;17.00;99.90
18103;DHT22;9178;51.120;6.192;2023-06-14T05:47:59;17.10;99.90
18103;DHT22;9178;51.120;6.192;2023-06-14T05:50:27;17.10;99.90
18103;DHT22;9178;51.120;6.192;2023-06-14T05:52:54;17.20;99.90
18103;DHT22;9178;51.120;6.192;2023-06-14T05:55:21;17.30;99.90
18103;DHT22;9178;51.120;6.192;2023-06-14T05:57:48;17.30;99.90
18103;DHT22;9178;51.120;6.192;2023-06-14T06:00:16;17.40;99.90
18103;DHT22;9178;51.120;6.192;2023-06-14T06:02:47;17.50;99.90
18103;DHT22;9178;51.120;6.192;2023-06-14T06:05:16;17.60;99.90
18103;DHT22;9178;51.120;6.192;2023-06-14T06:07:43;17.70;99.90
18103;DHT22;9178;51.120;6.192;2023-06-14T06:10:11;17.80;99.90
18103;DHT22;9178;51.120;6.192;2023-06-14T06:12:40;17.80;99.90
18103;DHT22;9178;51.120;6.192;2023-06-14T06:15:08;17.90;99.90
18103;DHT22;9178;51.120;6.192;2023-06-14T06:17:37;17.90;99.90
18103;DHT22;9178;51.120;6.192;2023-06-14T06:20:05;18.00;99.90
18103;DHT22;9178;51.120;6.192;2023-06-14T06:22:41;18.10;99.90
18103;DHT22;9178;51.120;6.192;2023-06-14T06:25:08;18.20;99.90
18103;DHT22;9178;51.120;6.192;2023-06-14T06:27:41;18.30;99.90
18103;DHT22;9178;51.120;6.192;2023-06-14T06:30:08;18.40;99.90
18103;DHT22;9178;51.120;6.192;2023-06-14T06:32:39;18.50;99.90
18103;DHT22;9178;51.120;6.192;2023-06-14T06:35:07;18.60;99.90
18103;DHT22;9178;51.120;6.192;2023-06-14T06:37:37;18.80;99.90
18103;DHT22;9178;51.120;6.192;2023-06-14T06:40:11;18.90;99.80
18103;DHT22;9178;51.120;6.192;2023-06-14T06:42:41;19.00;99.90
18103;DHT22;9178;51.120;6.192;2023-06-14T06:45:09;19.00;99.40
18103;DHT22;9178;51.120;6.192;2023-06-14T06:47:42;19.10;97.90
18103;DHT22;9178;51.120;6.192;2023-06-14T06:50:16;19.20;95.60
18103;DHT22;9178;51.120;6.192;2023-06-14T06:52:50;19.20;93.20
18103;DHT22;9178;51.120;6.192;2023-06-14T06:55:17;19.30;92.40
18103;DHT22;9178;51.120;6.192;2023-06-14T06:57:45;19.40;93.30
18103;DHT22;9178;51.120;6.192;2023-06-14T07:00:13;19.50;93.20
18103;DHT22;9178;51.120;6.192;2023-06-14T07:02:41;19.60;93.40
18103;DHT22;9178;51.120;6.192;2023-06-14T07:05:08;19.70;92.70
18103;DHT22;9178;51.120;6.192;2023-06-14T07:07:40;19.90;90.90
18103;DHT22;9178;51.120;6.192;2023-06-14T07:10:10;20.10;90.00
18103;DHT22;9178;51.120;6.192;2023-06-14T07:12:37;20.30;88.00
18103;DHT22;9178;51.120;6.192;2023-06-14T07:15:06;20.50;89.10
18103;DHT22;9178;51.120;6.192;2023-06-14T07:17:34;20.70;90.20
18103;DHT22;9178;51.120;6.192;2023-06-14T07:20:03;20.90;86.60
18103;DHT22;9178;51.120;6.192;2023-06-14T07:22:42;21.10;86.00
18103;DHT22;9178;51.120;6.192;2023-06-14T07:25:11;21.30;85.30
18103;DHT22;9178;51.120;6.192;2023-06-14T07:27:40;21.60;81.70
18103;DHT22;9178;51.120;6.192;2023-06-14T07:30:08;21.80;80.70
18103;DHT22;9178;51.120;6.192;2023-06-14T07:32:36;22.00;81.20
18103;DHT22;9178;51.120;6.192;2023-06-14T07:35:03;22.20;77.90
18103;DHT22;9178;51.120;6.192;2023-06-14T07:37:31;22.20;76.60
18103;DHT22;9178;51.120;6.192;2023-06-14T07:40:11;22.50;79.90
18103;DHT22;9178;51.120;6.192;2023-06-14T07:42:39;22.80;78.60
18103;DHT22;9178;51.120;6.192;2023-06-14T07:45:06;23.00;76.00
18103;DHT22;9178;51.120;6.192;2023-06-14T07:47:34;23.30;79.10
18103;DHT22;9178;51.120;6.192;2023-06-14T07:50:01;23.60;77.90
18103;DHT22;9178;51.120;6.192;2023-06-14T07:52:31;23.80;74.40
18103;DHT22;9178;51.120;6.192;2023-06-14T07:54:58;23.90;71.50
18103;DHT22;9178;51.120;6.192;2023-06-14T07:57:27;24.00;71.10
18103;DHT22;9178;51.120;6.192;2023-06-14T07:59:54;24.20;68.00
18103;DHT22;9178;51.120;6.192;2023-06-14T08:02:21;24.00;68.40
18103;DHT22;9178;51.120;6.192;2023-06-14T08:04:48;24.20;68.90
18103;DHT22;9178;51.120;6.192;2023-06-14T08:07:16;24.50;65.90
18103;DHT22;9178;51.120;6.192;2023-06-14T08:09:43;24.50;65.10
18103;DHT22;9178;51.120;6.192;2023-06-14T08:12:13;24.80;68.40
18103;DHT22;9178;51.120;6.192;2023-06-14T08:14:48;25.10;64.30
18103;DHT22;9178;51.120;6.192;2023-06-14T08:17:17;25.20;65.00
18103;DHT22;9178;51.120;6.192;2023-06-14T08:19:46;25.20;63.70
18103;DHT22;9178;51.120;6.192;2023-06-14T08:22:15;25.40;66.10
18103;DHT22;9178;51.120;6.192;2023-06-14T08:24:43;25.60;67.30
18103;DHT22;9178;51.120;6.192;2023-06-14T08:27:11;26.00;64.10
18103;DHT22;9178;51.120;6.192;2023-06-14T08:29:45;26.00;59.40
18103;DHT22;9178;51.120;6.192;2023-06-14T08:32:12;25.90;61.60
18103;DHT22;9178;51.120;6.192;2023-06-14T08:34:40;26.10;60.40
18103;DHT22;9178;51.120;6.192;2023-06-14T08:37:07;26.20;59.00
18103;DHT22;9178;51.120;6.192;2023-06-14T08:39:36;26.30;62.10
18103;DHT22;9178;51.120;6.192;2023-06-14T08:42:04;26.80;59.40
18103;DHT22;9178;51.120;6.192;2023-06-14T08:44:33;26.90;59.70
18103;DHT22;9178;51.120;6.192;2023-06-14T08:47:02;27.20;59.90
18103;DHT22;9178;51.120;6.192;2023-06-14T08:49:29;27.20;57.00
18103;DHT22;9178;51.120;6.192;2023-06-14T08:51:58;27.30;55.40
18103;DHT22;9178;51.120;6.192;2023-06-14T08:54:32;27.50;57.30
18103;DHT22;9178;51.120;6.192;2023-06-14T08:57:03;28.00;57.20
18103;DHT22;9178;51.120;6.192;2023-06-14T08:59:40;28.30;56.00
18103;DHT22;9178;51.120;6.192;2023-06-14T09:02:19;28.20;50.10
18103;DHT22;9178;51.120;6.192;2023-06-14T09:04:49;27.90;51.90
18103;DHT22;9178;51.120;6.192;2023-06-14T09:07:16;27.90;50.60
18103;DHT22;9178;51.120;6.192;2023-06-14T09:09:44;28.20;51.00
18103;DHT22;9178;51.120;6.192;2023-06-14T09:12:11;28.50;48.80
18103;DHT22;9178;51.120;6.192;2023-06-14T09:14:40;28.80;48.10
18103;DHT22;9178;51.120;6.192;2023-06-14T09:17:13;29.20;48.70
18103;DHT22;9178;51.120;6.192;2023-06-14T09:19:41;29.30;49.20
18103;DHT22;9178;51.120;6.192;2023-06-14T09:22:08;29.70;48.50
18103;DHT22;9178;51.120;6.192;2023-06-14T09:24:46;30.00;45.10
18103;DHT22;9178;51.120;6.192;2023-06-14T09:27:15;29.90;41.60
18103;DHT22;9178;51.120;6.192;2023-06-14T09:29:45;29.90;45.60
18103;DHT22;9178;51.120;6.192;2023-06-14T09:32:14;29.90;43.90
18103;DHT22;9178;51.120;6.192;2023-06-14T09:34:52;30.10;42.10
18103;DHT22;9178;51.120;6.192;2023-06-14T09:37:30;30.10;42.90
18103;DHT22;9178;51.120;6.192;2023-06-14T09:39:57;30.30;41.70
18103;DHT22;9178;51.120;6.192;2023-06-14T09:42:39;30.60;44.10
18103;DHT22;9178;51.120;6.192;2023-06-14T09:45:12;30.90;41.50
18103;DHT22;9178;51.120;6.192;2023-06-14T09:47:48;30.90;41.00
18103;DHT22;9178;51.120;6.192;2023-06-14T09:50:18;31.10;44.40
18103;DHT22;9178;51.120;6.192;2023-06-14T09:53:15;30.80;43.80
18103;DHT22;9178;51.120;6.192;2023-06-14T09:55:59;31.10;44.50
18103;DHT22;9178;51.120;6.192;2023-06-14T09:58:32;31.60;44.20
18103;DHT22;9178;51.120;6.192;2023-06-14T10:01:02;31.80;43.50
18103;DHT22;9178;51.120;6.192;2023-06-14T10:03:34;31.80;42.60
18103;DHT22;9178;51.120;6.192;2023-06-14T10:06:08;31.80;42.30
18103;DHT22;9178;51.120;6.192;2023-06-14T10:08:46;31.70;42.90
18103;DHT22;9178;51.120;6.192;2023-06-14T10:11:21;31.50;43.30
18103;DHT22;9178;51.120;6.192;2023-06-14T10:13:51;31.60;42.80
18103;DHT22;9178;51.120;6.192;2023-06-14T10:16:27;31.90;41.00
18103;DHT22;9178;51.120;6.192;2023-06-14T10:19:11;31.40;40.90
18103;DHT22;9178;51.120;6.192;2023-06-14T10:21:49;31.40;41.50
18103;DHT22;9178;51.120;6.192;2023-06-14T10:24:33;31.70;41.40
18103;DHT22;9178;51.120;6.192;2023-06-14T10:27:03;32.00;40.70
18103;DHT22;9178;51.120;6.192;2023-06-14T10:30:02;32.70;42.50
18103;DHT22;9178;51.120;6.192;2023-06-14T10:32:30;32.60;40.10
18103;DHT22;9178;51.120;6.192;2023-06-14T10:35:05;32.50;42.90
18103;DHT22;9178;51.120;6.192;2023-06-14T10:40:30;33.20;41.70
18103;DHT22;9178;51.120;6.192;2023-06-14T10:46:42;33.60;39.90
18103;DHT22;9178;51.120;6.192;2023-06-14T10:49:16;32.70;42.00
18103;DHT22;9178;51.120;6.192;2023-06-14T10:51:50;33.00;41.20
18103;DHT22;9178;51.120;6.192;2023-06-14T10:54:23;33.30;41.20
18103;DHT22;9178;51.120;6.192;2023-06-14T10:56:52;33.60;40.40
18103;DHT22;9178;51.120;6.192;2023-06-14T10:59:24;34.00;41.40
18103;DHT22;9178;51.120;6.192;2023-06-14T11:01:58;34.10;39.60
18103;DHT22;9178;51.120;6.192;2023-06-14T11:04:52;33.40;39.90
18103;DHT22;9178;51.120;6.192;2023-06-14T11:07:36;33.10;42.60
18103;DHT22;9178;51.120;6.192;2023-06-14T11:10:13;33.80;41.60
18103;DHT22;9178;51.120;6.192;2023-06-14T11:12:49;34.10;38.70
18103;DHT22;9178;51.120;6.192;2023-06-14T11:15:20;33.60;41.60
18103;DHT22;9178;51.120;6.192;2023-06-14T11:17:52;33.70;39.70
18103;DHT22;9178;51.120;6.192;2023-06-14T11:20:19;33.80;40.60
18103;DHT22;9178;51.120;6.192;2023-06-14T11:22:59;34.10;41.70
18103;DHT22;9178;51.120;6.192;2023-06-14T11:25:28;34.00;41.70
18103;DHT22;9178;51.120;6.192;2023-06-14T11:27:56;33.60;40.30
18103;DHT22;9178;51.120;6.192;2023-06-14T11:30:25;33.40;41.10
18103;DHT22;9178;51.120;6.192;2023-06-14T11:32:53;33.60;40.60
18103;DHT22;9178;51.120;6.192;2023-06-14T11:35:23;34.20;41.20
18103;DHT22;9178;51.120;6.192;2023-06-14T11:38:01;34.80;39.50
18103;DHT22;9178;51.120;6.192;2023-06-14T11:40:31;34.90;40.30
18103;DHT22;9178;51.120;6.192;2023-06-14T11:42:59;35.20;39.40
18103;DHT22;9178;51.120;6.192;2023-06-14T11:45:37;35.50;38.60
18103;DHT22;9178;51.120;6.192;2023-06-14T11:48:06;35.60;39.80
18103;DHT22;9178;51.120;6.192;2023-06-14T11:50:50;35.90;39.40
18103;DHT22;9178;51.120;6.192;2023-06-14T11:53:20;35.90;37.40
18103;DHT22;9178;51.120;6.192;2023-06-14T11:55:49;35.00;38.40
18103;DHT22;9178;51.120;6.192;2023-06-14T11:58:21;35.00;37.80
18103;DHT22;9178;51.120;6.192;2023-06-14T12:00:49;35.20;40.30
18103;DHT22;9178;51.120;6.192;2023-06-14T12:03:16;35.70;37.80
18103;DHT22;9178;51.120;6.192;2023-06-14T12:05:46;34.70;38.20
18103;DHT22;9178;51.120;6.192;2023-06-14T12:08:17;33.70;39.20
18103;DHT22;9178;51.120;6.192;2023-06-14T12:10:45;34.20;38.80
18103;DHT22;9178;51.120;6.192;2023-06-14T12:13:17;35.10;38.60
18103;DHT22;9178;51.120;6.192;2023-06-14T12:15:45;36.00;37.10
18103;DHT22;9178;51.120;6.192;2023-06-14T12:18:21;36.00;38.20
18103;DHT22;9178;51.120;6.192;2023-06-14T12:20:50;36.10;37.30
18103;DHT22;9178;51.120;6.192;2023-06-14T12:23:17;36.30;36.30
18103;DHT22;9178;51.120;6.192;2023-06-14T12:25:44;36.50;36.30
18103;DHT22;9178;51.120;6.192;2023-06-14T12:28:13;36.60;36.60
18103;DHT22;9178;51.120;6.192;2023-06-14T12:30:45;36.60;35.70
18103;DHT22;9178;51.120;6.192;2023-06-14T12:33:15;36.60;35.30
18103;DHT22;9178;51.120;6.192;2023-06-14T12:35:45;36.10;34.50
18103;DHT22;9178;51.120;6.192;2023-06-14T12:38:12;35.10;34.00
18103;DHT22;9178;51.120;6.192;2023-06-14T12:40:41;33.40;34.90
18103;DHT22;9178;51.120;6.192;2023-06-14T12:43:08;33.20;37.60
18103;DHT22;9178;51.120;6.192;2023-06-14T12:45:35;33.10;38.90
18103;DHT22;9178;51.120;6.192;2023-06-14T12:48:04;34.30;39.20
18103;DHT22;9178;51.120;6.192;2023-06-14T12:50:34;35.10;36.20
18103;DHT22;9178;51.120;6.192;2023-06-14T12:53:01;34.90;36.90
18103;DHT22;9178;51.120;6.192;2023-06-14T12:55:32;35.20;37.70
18103;DHT22;9178;51.120;6.192;2023-06-14T12:58:00;35.70;37.70
18103;DHT22;9178;51.120;6.192;2023-06-14T13:00:27;35.80;36.60
18103;DHT22;9178;51.120;6.192;2023-06-14T13:02:56;36.00;35.90
18103;DHT22;9178;51.120;6.192;2023-06-14T13:05:25;36.10;36.60
18103;DHT22;9178;51.120;6.192;2023-06-14T13:08:08;36.20;34.60
18103;DHT22;9178;51.120;6.192;2023-06-14T13:10:37;35.60;36.10
18103;DHT22;9178;51.120;6.192;2023-06-14T13:13:05;35.40;37.30
18103;DHT22;9178;51.120;6.192;2023-06-14T13:15:33;35.20;38.20
18103;DHT22;9178;51.120;6.192;2023-06-14T13:18:02;35.70;37.80
18103;DHT22;9178;51.120;6.192;2023-06-14T13:20:33;35.70;35.60
18103;DHT22;9178;51.120;6.192;2023-06-14T13:23:01;35.30;37.30
18103;DHT22;9178;51.120;6.192;2023-06-14T13:25:29;35.40;37.80
18103;DHT22;9178;51.120;6.192;2023-06-14T13:27:59;35.70;35.90
18103;DHT22;9178;51.120;6.192;2023-06-14T13:30:29;35.80;37.90
18103;DHT22;9178;51.120;6.192;2023-06-14T13:33:00;36.30;37.70
18103;DHT22;9178;51.120;6.192;2023-06-14T13:35:28;36.50;35.30
18103;DHT22;9178;51.120;6.192;2023-06-14T13:38:09;35.40;36.00
18103;DHT22;9178;51.120;6.192;2023-06-14T13:40:38;34.30;38.50
18103;DHT22;9178;51.120;6.192;2023-06-14T13:43:08;34.50;37.80
18103;DHT22;9178;51.120;6.192;2023-06-14T13:45:36;35.00;38.70
18103;DHT22;9178;51.120;6.192;2023-06-14T13:48:03;35.60;38.50
18103;DHT22;9178;51.120;6.192;2023-06-14T13:50:31;36.00;37.10
18103;DHT22;9178;51.120;6.192;2023-06-14T13:53:17;36.00;38.20
18103;DHT22;9178;51.120;6.192;2023-06-14T13:55:48;36.20;38.00
18103;DHT22;9178;51.120;6.192;2023-06-14T13:58:24;36.50;38.30
18103;DHT22;9178;51.120;6.192;2023-06-14T14:00:54;36.50;36.50
18103;DHT22;9178;51.120;6.192;2023-06-14T14:03:21;36.30;37.20
18103;DHT22;9178;51.120;6.192;2023-06-14T14:05:50;35.60;36.10
18103;DHT22;9178;51.120;6.192;2023-06-14T14:08:30;34.70;38.40
18103;DHT22;9178;51.120;6.192;2023-06-14T14:10:58;35.00;39.50
18103;DHT22;9178;51.120;6.192;2023-06-14T14:13:26;35.50;39.20
18103;DHT22;9178;51.120;6.192;2023-06-14T14:15:58;35.90;38.30
18103;DHT22;9178;51.120;6.192;2023-06-14T14:18:25;36.10;38.70
18103;DHT22;9178;51.120;6.192;2023-06-14T14:20:54;36.30;38.70
18103;DHT22;9178;51.120;6.192;2023-06-14T14:23:33;36.50;37.80
18103;DHT22;9178;51.120;6.192;2023-06-14T14:26:01;36.70;37.90
18103;DHT22;9178;51.120;6.192;2023-06-14T14:28:37;36.40;36.00
18103;DHT22;9178;51.120;6.192;2023-06-14T14:31:19;36.30;37.80
18103;DHT22;9178;51.120;6.192;2023-06-14T14:33:48;36.20;37.70
18103;DHT22;9178;51.120;6.192;2023-06-14T14:36:17;36.20;38.20
18103;DHT22;9178;51.120;6.192;2023-06-14T14:38:46;36.30;37.60
18103;DHT22;9178;51.120;6.192;2023-06-14T14:41:14;36.40;38.10
18103;DHT22;9178;51.120;6.192;2023-06-14T14:43:41;36.20;37.60
18103;DHT22;9178;51.120;6.192;2023-06-14T14:46:09;36.00;37.70
18103;DHT22;9178;51.120;6.192;2023-06-14T14:48:51;36.10;37.20
18103;DHT22;9178;51.120;6.192;2023-06-14T14:51:18;35.10;38.40
18103;DHT22;9178;51.120;6.192;2023-06-14T14:53:47;35.10;37.30
18103;DHT22;9178;51.120;6.192;2023-06-14T14:56:15;34.90;39.00
18103;DHT22;9178;51.120;6.192;2023-06-14T14:58:51;34.80;38.10
18103;DHT22;9178;51.120;6.192;2023-06-14T15:01:23;34.60;38.90
18103;DHT22;9178;51.120;6.192;2023-06-14T15:03:50;34.60;38.70
18103;DHT22;9178;51.120;6.192;2023-06-14T15:06:31;34.80;38.20
18103;DHT22;9178;51.120;6.192;2023-06-14T15:09:17;34.90;38.80
18103;DHT22;9178;51.120;6.192;2023-06-14T15:11:50;34.90;39.30
18103;DHT22;9178;51.120;6.192;2023-06-14T15:14:21;34.90;37.50
18103;DHT22;9178;51.120;6.192;2023-06-14T15:16:48;33.70;38.70
18103;DHT22;9178;51.120;6.192;2023-06-14T15:19:18;33.20;40.00
18103;DHT22;9178;51.120;6.192;2023-06-14T15:21:45;33.70;41.10
18103;DHT22;9178;51.120;6.192;2023-06-14T15:24:12;33.70;40.30
18103;DHT22;9178;51.120;6.192;2023-06-14T15:26:43;33.70;39.60
18103;DHT22;9178;51.120;6.192;2023-06-14T15:29:13;33.30;39.80
18103;DHT22;9178;51.120;6.192;2023-06-14T15:31:43;32.60;40.70
18103;DHT22;9178;51.120;6.192;2023-06-14T15:34:19;32.90;41.80
18103;DHT22;9178;51.120;6.192;2023-06-14T15:36:47;33.10;41.80
18103;DHT22;9178;51.120;6.192;2023-06-14T15:39:17;33.30;40.70
18103;DHT22;9178;51.120;6.192;2023-06-14T15:41:45;33.10;42.00
18103;DHT22;9178;51.120;6.192;2023-06-14T15:44:13;33.30;40.60
18103;DHT22;9178;51.120;6.192;2023-06-14T15:46:40;33.30;42.50
18103;DHT22;9178;51.120;6.192;2023-06-14T15:49:09;33.40;40.90
18103;DHT22;9178;51.120;6.192;2023-06-14T15:51:45;33.50;41.60
18103;DHT22;9178;51.120;6.192;2023-06-14T15:54:12;33.60;42.00
18103;DHT22;9178;51.120;6.192;2023-06-14T15:56:42;33.70;42.10
18103;DHT22;9178;51.120;6.192;2023-06-14T15:59:11;34.00;40.30
18103;DHT22;9178;51.120;6.192;2023-06-14T16:01:40;34.00;39.70
18103;DHT22;9178;51.120;6.192;2023-06-14T16:04:09;33.50;40.00
18103;DHT22;9178;51.120;6.192;2023-06-14T16:06:36;32.90;42.00
18103;DHT22;9178;51.120;6.192;2023-06-14T16:09:04;32.80;42.10
18103;DHT22;9178;51.120;6.192;2023-06-14T16:11:31;32.70;41.60